createdAt,value
2022-08-26T00:00:03.861Z,947.4
2022-08-26T00:01:06.597Z,947.3
2022-08-26T00:02:09.452Z,947.3
2022-08-26T00:03:12.476Z,947.4
2022-08-26T00:04:14.376Z,947.4
2022-08-26T00:05:16.207Z,947.4
2022-08-26T00:06:21.201Z,947.4
2022-08-26T00:07:23.018Z,947.3
2022-08-26T00:08:24.696Z,947.3
2022-08-26T00:09:26.366Z,947.3
2022-08-26T00:10:28.009Z,947.3
2022-08-26T00:11:29.623Z,947.3
2022-08-26T00:12:38.137Z,947.3
2022-08-26T00:13:49.819Z,947.3
2022-08-26T00:14:51.367Z,947.3
2022-08-26T00:15:52.989Z,947.3
2022-08-26T00:16:55.819Z,947.3
2022-08-26T00:17:57.998Z,947.2
2022-08-26T00:19:00.036Z,947.2
2022-08-26T00:20:01.634Z,947.2
2022-08-26T00:21:06.864Z,947.2
2022-08-26T00:22:08.551Z,947.2
2022-08-26T00:23:10.120Z,947.2
2022-08-26T00:24:11.685Z,947.3
2022-08-26T00:25:17.027Z,947.3
2022-08-26T00:26:21.202Z,947.3
2022-08-26T00:27:23.499Z,947.3
2022-08-26T00:28:27.104Z,947.3
2022-08-26T00:29:37.550Z,947.2
2022-08-26T00:30:39.488Z,947.2
2022-08-26T00:31:42.449Z,947.2
2022-08-26T00:32:48.537Z,947.2
2022-08-26T00:33:50.085Z,947.2
2022-08-26T00:34:52.217Z,947.2
2022-08-26T00:35:54.065Z,947.2
2022-08-26T00:36:55.913Z,947.2
2022-08-26T00:37:57.784Z,947.2
2022-08-26T00:38:59.444Z,947.1
2022-08-26T00:40:05.809Z,947.2
2022-08-26T00:41:07.580Z,947.1
2022-08-26T00:42:10.699Z,947.1
2022-08-26T00:43:12.870Z,947.2
2022-08-26T00:44:14.418Z,947.1
2022-08-26T00:45:16.101Z,947.1
2022-08-26T00:46:18.669Z,947.1
2022-08-26T00:47:21.651Z,947.1
2022-08-26T00:48:23.396Z,947.2
2022-08-26T00:49:25.146Z,947.2
2022-08-26T00:50:28.256Z,947.2
2022-08-26T00:51:30.946Z,947.1
2022-08-26T00:52:32.983Z,947.1
2022-08-26T00:53:35.312Z,947.1
2022-08-26T00:54:37.059Z,947.1
2022-08-26T00:55:38.804Z,947.1
2022-08-26T00:56:48.788Z,947.1
2022-08-26T00:57:50.353Z,947.1
2022-08-26T00:58:52.176Z,947.1
2022-08-26T00:59:53.762Z,947.1
2022-08-26T01:00:55.783Z,947.1
2022-08-26T01:01:57.767Z,947
2022-08-26T01:02:59.594Z,947.1
2022-08-26T01:04:01.596Z,947.1
2022-08-26T01:05:04.200Z,947.1
2022-08-26T01:06:13.416Z,947.1
2022-08-26T01:07:15.165Z,947.1
2022-08-26T01:08:16.932Z,947
2022-08-26T01:09:18.833Z,947
2022-08-26T01:10:20.617Z,947
2022-08-26T01:11:22.963Z,947
2022-08-26T01:12:25.750Z,947
2022-08-26T01:13:27.494Z,947
2022-08-26T01:14:29.271Z,947
2022-08-26T01:15:33.444Z,947.1
2022-08-26T01:16:35.258Z,947
2022-08-26T01:17:37.660Z,947.1
2022-08-26T01:18:39.483Z,947.1
2022-08-26T01:19:42.071Z,947.1
2022-08-26T01:20:43.642Z,947.1
2022-08-26T01:21:45.289Z,947.1
2022-08-26T01:22:47.957Z,947.1
2022-08-26T01:23:58.097Z,947.1
2022-08-26T01:24:59.723Z,947
2022-08-26T01:26:02.764Z,947
2022-08-26T01:27:07.655Z,947.1
2022-08-26T01:28:10.083Z,947
2022-08-26T01:29:11.721Z,947
2022-08-26T01:30:13.911Z,947
2022-08-26T01:31:15.765Z,947
2022-08-26T01:32:19.456Z,947
2022-08-26T01:33:23.125Z,947
2022-08-26T01:34:25.099Z,947
2022-08-26T01:35:26.720Z,947
2022-08-26T01:36:28.393Z,947
2022-08-26T01:37:30.932Z,947
2022-08-26T01:38:32.705Z,947
2022-08-26T01:39:34.430Z,947.1
2022-08-26T01:40:36.012Z,947.1
2022-08-26T01:41:37.824Z,947.1
2022-08-26T01:42:40.795Z,947.1
2022-08-26T01:43:42.953Z,947.1
2022-08-26T01:44:44.977Z,947.1
2022-08-26T01:45:48.520Z,947.1
2022-08-26T01:46:51.106Z,947.1
2022-08-26T01:47:57.626Z,947.1
2022-08-26T01:48:59.291Z,947
2022-08-26T01:50:03.390Z,947
2022-08-26T01:51:07.188Z,947.1
2022-08-26T01:52:13.010Z,947
2022-08-26T01:53:14.690Z,947.1
2022-08-26T01:54:20.705Z,947.1
2022-08-26T01:55:34.330Z,947.1
2022-08-26T01:56:36.941Z,947.1
2022-08-26T01:57:38.750Z,947.1
2022-08-26T01:58:40.464Z,947.1
2022-08-26T01:59:42.206Z,947.1
2022-08-26T02:00:44.744Z,947.1
2022-08-26T02:01:46.527Z,947.1
2022-08-26T02:02:48.425Z,947.1
2022-08-26T02:03:50.070Z,947.1
2022-08-26T02:04:52.161Z,947.1
2022-08-26T02:05:55.259Z,947.1
2022-08-26T02:06:59.288Z,947.2
2022-08-26T02:08:01.424Z,947.1
2022-08-26T02:09:04.439Z,947.1
2022-08-26T02:10:06.475Z,947.1
2022-08-26T02:11:08.216Z,947.1
2022-08-26T02:12:10.706Z,947.1
2022-08-26T02:13:15.815Z,947
2022-08-26T02:14:17.449Z,947.1
2022-08-26T02:15:22.078Z,947.1
2022-08-26T02:16:24.984Z,947
2022-08-26T02:17:28.047Z,947.1
2022-08-26T02:18:30.103Z,947.1
2022-08-26T02:19:31.873Z,947
2022-08-26T02:20:34.499Z,947
2022-08-26T02:21:36.264Z,947
2022-08-26T02:22:37.994Z,946.9
2022-08-26T02:23:39.851Z,947
2022-08-26T02:24:42.888Z,947
2022-08-26T02:25:44.710Z,947
2022-08-26T02:26:46.302Z,947
2022-08-26T02:27:48.475Z,947
2022-08-26T02:28:50.026Z,947
2022-08-26T02:29:51.682Z,947
2022-08-26T02:30:55.981Z,947
2022-08-26T02:31:58.659Z,947
2022-08-26T02:33:00.393Z,947
2022-08-26T02:34:02.135Z,947
2022-08-26T02:35:03.768Z,947
2022-08-26T02:36:07.598Z,947
2022-08-26T02:37:09.801Z,947
2022-08-26T02:38:11.686Z,947
2022-08-26T02:39:22.521Z,947
2022-08-26T02:40:25.167Z,947
2022-08-26T02:41:27.167Z,947
2022-08-26T02:42:28.811Z,947
2022-08-26T02:43:33.633Z,947
2022-08-26T02:44:35.295Z,947
2022-08-26T02:45:37.673Z,947
2022-08-26T02:46:41.267Z,947
2022-08-26T02:47:50.765Z,947
2022-08-26T02:48:52.475Z,947
2022-08-26T02:49:54.174Z,947
2022-08-26T02:50:56.226Z,947.1
2022-08-26T02:51:57.973Z,947
2022-08-26T02:53:03.666Z,947.1
2022-08-26T02:54:07.467Z,947.1
2022-08-26T02:55:09.417Z,947
2022-08-26T02:56:11.074Z,947.1
2022-08-26T02:57:12.769Z,947.1
2022-08-26T02:58:14.490Z,947.1
2022-08-26T02:59:17.224Z,947
2022-08-26T03:00:19.729Z,947
2022-08-26T03:01:22.333Z,947
2022-08-26T03:02:24.833Z,947
2022-08-26T03:03:28.100Z,947.1
2022-08-26T03:04:33.784Z,947
2022-08-26T03:05:35.531Z,947
2022-08-26T03:06:41.784Z,947
2022-08-26T03:07:45.376Z,947.1
2022-08-26T03:08:47.309Z,947
2022-08-26T03:09:51.954Z,947.1
2022-08-26T03:10:53.603Z,947
2022-08-26T03:11:55.842Z,947
2022-08-26T03:12:58.433Z,947.1
2022-08-26T03:14:03.956Z,947
2022-08-26T03:15:18.698Z,947.1
2022-08-26T03:16:20.905Z,947.1
2022-08-26T03:17:22.777Z,947.1
2022-08-26T03:18:24.455Z,947.1
2022-08-26T03:19:26.626Z,947.1
2022-08-26T03:20:28.183Z,947.1
2022-08-26T03:21:29.918Z,947.1
2022-08-26T03:22:31.642Z,947.1
2022-08-26T03:23:34.520Z,947.1
2022-08-26T03:24:36.234Z,947.1
2022-08-26T03:25:38.872Z,947.1
2022-08-26T03:26:53.382Z,947.1
2022-08-26T03:27:55.054Z,947.1
2022-08-26T03:28:56.729Z,947.1
2022-08-26T03:29:58.437Z,947.1
2022-08-26T03:31:00.191Z,947.1
2022-08-26T03:32:02.187Z,947.1
2022-08-26T03:33:04.105Z,947.1
2022-08-26T03:34:05.888Z,947.1
2022-08-26T03:35:07.585Z,947.1
2022-08-26T03:36:09.171Z,947.1
2022-08-26T03:37:10.878Z,947.1
2022-08-26T03:38:12.472Z,947
2022-08-26T03:39:14.253Z,947.1
2022-08-26T03:40:20.819Z,947.1
2022-08-26T03:41:24.069Z,947
2022-08-26T03:42:25.859Z,947
2022-08-26T03:43:27.590Z,947
2022-08-26T03:44:29.256Z,947
2022-08-26T03:45:30.795Z,947
2022-08-26T03:46:33.750Z,947
2022-08-26T03:47:38.493Z,947
2022-08-26T03:48:40.317Z,947
2022-08-26T03:49:43.215Z,947
2022-08-26T03:50:44.795Z,947.1
2022-08-26T03:51:50.373Z,947.1
2022-08-26T03:52:52.736Z,947.1
2022-08-26T03:53:54.401Z,947.1
2022-08-26T03:54:56.009Z,947
2022-08-26T03:55:57.796Z,947.1
2022-08-26T03:56:59.356Z,947.1
2022-08-26T03:58:02.704Z,947
2022-08-26T03:59:08.033Z,947.1
2022-08-26T04:00:09.680Z,947
2022-08-26T04:01:11.870Z,947
2022-08-26T04:02:15.734Z,947.1
2022-08-26T04:03:19.984Z,947
2022-08-26T04:04:24.862Z,947
2022-08-26T04:05:28.573Z,947
2022-08-26T04:06:30.937Z,947
2022-08-26T04:07:33.900Z,947
2022-08-26T04:08:35.612Z,947
2022-08-26T04:09:37.797Z,947
2022-08-26T04:10:41.613Z,947
2022-08-26T04:11:43.179Z,947
2022-08-26T04:12:45.504Z,947
2022-08-26T04:13:49.812Z,947
2022-08-26T04:14:54.079Z,947
2022-08-26T04:16:00.028Z,947
2022-08-26T04:17:01.834Z,946.9
2022-08-26T04:18:03.569Z,946.9
2022-08-26T04:19:05.321Z,946.9
2022-08-26T04:20:06.988Z,946.9
2022-08-26T04:21:08.714Z,947
2022-08-26T04:22:10.442Z,947
2022-08-26T04:23:12.180Z,947
2022-08-26T04:24:14.145Z,946.9
2022-08-26T04:25:16.503Z,947
2022-08-26T04:26:18.381Z,947
2022-08-26T04:27:20.601Z,947
2022-08-26T04:28:23.043Z,947
2022-08-26T04:29:25.201Z,947
2022-08-26T04:30:26.846Z,947
2022-08-26T04:31:32.241Z,946.9
2022-08-26T04:32:34.902Z,947
2022-08-26T04:33:42.263Z,947
2022-08-26T04:34:46.059Z,947
2022-08-26T04:35:48.137Z,947
2022-08-26T04:36:50.004Z,947
2022-08-26T04:37:51.592Z,947
2022-08-26T04:38:54.002Z,947
2022-08-26T04:39:55.852Z,947
2022-08-26T04:40:57.792Z,947
2022-08-26T04:42:02.080Z,947
2022-08-26T04:43:03.713Z,947
2022-08-26T04:44:05.460Z,947
2022-08-26T04:45:11.856Z,947.1
2022-08-26T04:46:14.552Z,947.1
2022-08-26T04:47:19.448Z,947
2022-08-26T04:48:21.295Z,947
2022-08-26T04:49:26.240Z,947
2022-08-26T04:50:29.230Z,947
2022-08-26T04:51:30.881Z,947
2022-08-26T04:52:32.525Z,947
2022-08-26T04:53:34.762Z,947
2022-08-26T04:54:36.773Z,947
2022-08-26T04:55:45.223Z,947
2022-08-26T04:56:50.221Z,947
2022-08-26T04:57:51.914Z,947
2022-08-26T04:58:53.477Z,947
2022-08-26T04:59:55.083Z,947
2022-08-26T05:00:56.709Z,947
2022-08-26T05:01:58.759Z,947.1
2022-08-26T05:03:01.757Z,947.1
2022-08-26T05:04:08.903Z,947.1
2022-08-26T05:05:11.350Z,947.1
2022-08-26T05:06:12.955Z,947.1
2022-08-26T05:07:18.121Z,947.1
2022-08-26T05:08:20.811Z,947.1
2022-08-26T05:09:23.374Z,947.1
2022-08-26T05:10:27.012Z,947.1
2022-08-26T05:11:29.791Z,947.1
2022-08-26T05:12:31.450Z,947.1
2022-08-26T05:13:35.157Z,947.1
2022-08-26T05:14:37.080Z,947.1
2022-08-26T05:15:39.085Z,947.1
2022-08-26T05:16:41.460Z,947.1
2022-08-26T05:17:45.221Z,947.1
2022-08-26T05:18:46.825Z,947.1
2022-08-26T05:19:50.274Z,947.1
2022-08-26T05:20:55.174Z,947.1
2022-08-26T05:21:56.845Z,947.1
2022-08-26T05:22:58.434Z,947.1
2022-08-26T05:24:00.723Z,947.1
2022-08-26T05:25:02.447Z,947.2
2022-08-26T05:26:05.367Z,947.2
2022-08-26T05:27:12.731Z,947.2
2022-08-26T05:28:14.338Z,947.2
2022-08-26T05:29:17.242Z,947.2
2022-08-26T05:30:21.415Z,947.2
2022-08-26T05:31:23.752Z,947.3
2022-08-26T05:32:29.349Z,947.2
2022-08-26T05:33:31.071Z,947.3
2022-08-26T05:34:32.814Z,947.3
2022-08-26T05:35:34.470Z,947.3
2022-08-26T05:36:38.082Z,947.3
2022-08-26T05:37:39.745Z,947.2
2022-08-26T05:38:44.337Z,947.3
2022-08-26T05:39:51.926Z,947.3
2022-08-26T05:40:54.208Z,947.3
2022-08-26T05:41:56.342Z,947.3
2022-08-26T05:42:58.907Z,947.3
2022-08-26T05:44:00.453Z,947.3
2022-08-26T05:45:03.144Z,947.3
2022-08-26T05:46:06.238Z,947.3
2022-08-26T05:47:09.092Z,947.3
2022-08-26T05:48:10.648Z,947.3
2022-08-26T05:49:13.388Z,947.3
2022-08-26T05:50:15.251Z,947.3
2022-08-26T05:51:17.625Z,947.3
2022-08-26T05:52:19.366Z,947.3
2022-08-26T05:53:21.411Z,947.3
2022-08-26T05:54:23.148Z,947.3
2022-08-26T05:55:24.895Z,947.2
2022-08-26T05:56:26.559Z,947.2
2022-08-26T05:57:29.829Z,947.2
2022-08-26T05:58:31.495Z,947.3
2022-08-26T05:59:38.995Z,947.3
2022-08-26T06:00:44.293Z,947.3
2022-08-26T06:01:46.261Z,947.3
2022-08-26T06:02:49.056Z,947.3
2022-08-26T06:03:52.159Z,947.3
2022-08-26T06:04:53.938Z,947.3
2022-08-26T06:05:55.899Z,947.3
2022-08-26T06:06:57.942Z,947.3
2022-08-26T06:07:59.997Z,947.3
2022-08-26T06:09:02.471Z,947.3
2022-08-26T06:10:33.320Z,947.3
2022-08-26T06:11:35.151Z,947.3
2022-08-26T06:12:39.536Z,947.3
2022-08-26T06:13:42.351Z,947.3
2022-08-26T06:14:44.714Z,947.3
2022-08-26T06:15:50.903Z,947.3
2022-08-26T06:16:53.208Z,947.4
2022-08-26T06:17:54.767Z,947.4
2022-08-26T06:18:56.499Z,947.4
2022-08-26T06:19:58.161Z,947.4
2022-08-26T06:20:59.827Z,947.4
2022-08-26T06:22:01.548Z,947.4
2022-08-26T06:23:03.288Z,947.4
2022-08-26T06:24:06.251Z,947.5
2022-08-26T06:25:10.368Z,947.4
2022-08-26T06:26:11.946Z,947.4
2022-08-26T06:27:15.249Z,947.5
2022-08-26T06:28:17.209Z,947.5
2022-08-26T06:29:25.153Z,947.5
2022-08-26T06:30:27.019Z,947.5
2022-08-26T06:31:30.312Z,947.5
2022-08-26T06:32:32.442Z,947.5
2022-08-26T06:33:34.274Z,947.5
2022-08-26T06:34:36.121Z,947.4
2022-08-26T06:35:37.868Z,947.4
2022-08-26T06:36:39.840Z,947.5
2022-08-26T06:37:46.116Z,947.5
2022-08-26T06:38:47.705Z,947.5
2022-08-26T06:39:51.764Z,947.5
2022-08-26T06:40:54.893Z,947.5
2022-08-26T06:41:56.670Z,947.5
2022-08-26T06:42:58.371Z,947.5
2022-08-26T06:44:00.027Z,947.5
2022-08-26T06:45:04.757Z,947.5
2022-08-26T06:46:09.337Z,947.5
2022-08-26T06:47:13.370Z,947.5
2022-08-26T06:48:15.152Z,947.6
2022-08-26T06:49:17.620Z,947.6
2022-08-26T06:50:19.503Z,947.6
2022-08-26T06:51:23.944Z,947.6
2022-08-26T06:52:25.904Z,947.6
2022-08-26T06:53:27.755Z,947.6
2022-08-26T06:54:30.747Z,947.6
2022-08-26T06:55:32.905Z,947.6
2022-08-26T06:56:34.863Z,947.6
2022-08-26T06:57:41.399Z,947.6
2022-08-26T06:58:43.431Z,947.5
2022-08-26T06:59:44.977Z,947.6
2022-08-26T07:00:47.893Z,947.6
2022-08-26T07:01:50.635Z,947.6
2022-08-26T07:02:52.729Z,947.6
2022-08-26T07:03:57.428Z,947.6
2022-08-26T07:04:59.381Z,947.6
2022-08-26T07:06:01.442Z,947.6
2022-08-26T07:07:03.235Z,947.6
2022-08-26T07:08:05.286Z,947.6
2022-08-26T07:09:10.351Z,947.6
2022-08-26T07:10:12.224Z,947.6
2022-08-26T07:11:13.839Z,947.6
2022-08-26T07:12:15.492Z,947.6
2022-08-26T07:13:31.163Z,947.6
2022-08-26T07:14:34.344Z,947.6
2022-08-26T07:15:36.428Z,947.6
2022-08-26T07:16:38.145Z,947.6
2022-08-26T07:17:40.742Z,947.6
2022-08-26T07:18:46.044Z,947.6
2022-08-26T07:19:49.602Z,947.6
2022-08-26T07:20:52.306Z,947.6
2022-08-26T07:21:56.117Z,947.6
2022-08-26T07:22:57.969Z,947.6
2022-08-26T07:24:01.950Z,947.6
2022-08-26T07:25:03.775Z,947.6
2022-08-26T07:26:08.124Z,947.6
2022-08-26T07:27:10.058Z,947.6
2022-08-26T07:28:11.877Z,947.6
2022-08-26T07:29:13.662Z,947.6
2022-08-26T07:30:15.330Z,947.6
2022-08-26T07:31:17.294Z,947.6
2022-08-26T07:32:23.129Z,947.5
2022-08-26T07:33:24.742Z,947.6
2022-08-26T07:34:26.667Z,947.6
2022-08-26T07:35:28.351Z,947.6
2022-08-26T07:36:30.498Z,947.6
2022-08-26T07:37:39.624Z,947.7
2022-08-26T07:38:42.901Z,947.6
2022-08-26T07:39:44.474Z,947.6
2022-08-26T07:40:46.364Z,947.6
2022-08-26T07:41:49.396Z,947.6
2022-08-26T07:42:50.960Z,947.7
2022-08-26T07:43:54.064Z,947.6
2022-08-26T07:44:55.622Z,947.6
2022-08-26T07:45:57.305Z,947.6
2022-08-26T07:46:59.001Z,947.6
2022-08-26T07:48:04.328Z,947.6
2022-08-26T07:49:07.183Z,947.6
2022-08-26T07:50:10.046Z,947.6
2022-08-26T07:51:13.259Z,947.6
2022-08-26T07:52:14.906Z,947.6
2022-08-26T07:53:19.658Z,947.5
2022-08-26T07:54:27.578Z,947.5
2022-08-26T07:55:29.153Z,947.6
2022-08-26T07:56:31.492Z,947.6
2022-08-26T07:57:35.040Z,947.6
2022-08-26T07:58:36.767Z,947.6
2022-08-26T07:59:38.850Z,947.6
2022-08-26T08:00:40.506Z,947.6
2022-08-26T08:01:45.866Z,947.6
2022-08-26T08:02:51.375Z,947.6
2022-08-26T08:03:58.657Z,947.6
2022-08-26T08:05:00.605Z,947.5
2022-08-26T08:06:02.776Z,947.5
2022-08-26T08:07:12.174Z,947.5
2022-08-26T08:08:29.487Z,947.5
2022-08-26T08:09:33.406Z,947.5
2022-08-26T08:10:35.268Z,947.6
2022-08-26T08:11:37.758Z,947.5
2022-08-26T08:12:39.434Z,947.5
2022-08-26T08:13:41.123Z,947.5
2022-08-26T08:14:44.172Z,947.5
2022-08-26T08:15:46.146Z,947.5
2022-08-26T08:16:55.396Z,947.5
2022-08-26T08:18:01.300Z,947.5
2022-08-26T08:19:05.621Z,947.5
2022-08-26T08:20:07.228Z,947.5
2022-08-26T08:21:24.307Z,947.5
2022-08-26T08:22:27.561Z,947.5
2022-08-26T08:23:29.970Z,947.5
2022-08-26T08:24:32.192Z,947.5
2022-08-26T08:25:34.134Z,947.5
2022-08-26T08:26:36.777Z,947.5
2022-08-26T08:27:38.450Z,947.5
2022-08-26T08:28:41.839Z,947.5
2022-08-26T08:29:43.573Z,947.5
2022-08-26T08:30:45.542Z,947.5
2022-08-26T08:32:03.075Z,947.5
2022-08-26T08:33:06.211Z,947.4
2022-08-26T08:34:07.871Z,947.5
2022-08-26T08:35:12.001Z,947.5
2022-08-26T08:36:20.785Z,947.4
2022-08-26T08:37:22.517Z,947.5
2022-08-26T08:38:24.592Z,947.5
2022-08-26T08:39:26.334Z,947.4
2022-08-26T08:40:29.721Z,947.5
2022-08-26T08:41:31.529Z,947.4
2022-08-26T08:42:33.231Z,947.4
2022-08-26T08:43:38.141Z,947.4
2022-08-26T08:44:39.755Z,947.3
2022-08-26T08:45:41.757Z,947.3
2022-08-26T08:46:43.454Z,947.4
2022-08-26T08:47:45.181Z,947.3
2022-08-26T08:48:46.845Z,947.3
2022-08-26T08:49:48.528Z,947.3
2022-08-26T08:50:50.558Z,947.3
2022-08-26T08:51:52.315Z,947.3
2022-08-26T08:52:54.382Z,947.3
2022-08-26T08:53:56.313Z,947.3
2022-08-26T08:54:57.986Z,947.2
2022-08-26T08:55:59.877Z,947.2
2022-08-26T08:57:01.861Z,947.3
2022-08-26T08:58:05.426Z,947.3
2022-08-26T08:59:11.400Z,947.3
2022-08-26T09:00:13.788Z,947.3
2022-08-26T09:01:15.646Z,947.3
2022-08-26T09:02:17.710Z,947.3
2022-08-26T09:03:20.854Z,947.3
2022-08-26T09:04:24.020Z,947.3
2022-08-26T09:05:26.570Z,947.3
2022-08-26T09:06:28.417Z,947.2
2022-08-26T09:07:36.970Z,947.3
2022-08-26T09:08:39.541Z,947.2
2022-08-26T09:09:41.233Z,947.2
2022-08-26T09:10:43.029Z,947.3
2022-08-26T09:11:46.407Z,947.2
2022-08-26T09:12:48.567Z,947.2
2022-08-26T09:13:50.411Z,947.2
2022-08-26T09:14:52.978Z,947.2
2022-08-26T09:15:59.847Z,947.2
2022-08-26T09:17:02.947Z,947.2
2022-08-26T09:18:06.824Z,947.1
2022-08-26T09:19:12.364Z,947.1
2022-08-26T09:20:14.235Z,947.2
2022-08-26T09:21:18.314Z,947.1
2022-08-26T09:22:20.165Z,947.1
2022-08-26T09:23:22.016Z,947.2
2022-08-26T09:24:29.395Z,947.1
2022-08-26T09:25:31.868Z,947.1
2022-08-26T09:26:35.653Z,947.1
2022-08-26T09:27:38.116Z,947.1
2022-08-26T09:28:40.175Z,947.1
2022-08-26T09:29:44.591Z,947
2022-08-26T09:30:46.660Z,947
2022-08-26T09:31:48.593Z,947.1
2022-08-26T09:32:56.583Z,947
2022-08-26T09:33:58.951Z,947
2022-08-26T09:35:00.696Z,947
2022-08-26T09:36:03.056Z,947
2022-08-26T09:37:05.210Z,947
2022-08-26T09:38:12.557Z,947
2022-08-26T09:39:15.234Z,947
2022-08-26T09:40:17.917Z,947
2022-08-26T09:41:21.836Z,947
2022-08-26T09:42:23.779Z,947
2022-08-26T09:43:25.695Z,947
2022-08-26T09:44:27.596Z,947
2022-08-26T09:45:30.354Z,947
2022-08-26T09:46:33.445Z,947
2022-08-26T09:47:35.486Z,947
2022-08-26T09:48:41.283Z,947
2022-08-26T09:49:44.000Z,947
2022-08-26T09:50:48.000Z,947
2022-08-26T09:51:50.567Z,947
2022-08-26T09:52:52.519Z,947
2022-08-26T09:53:54.782Z,947
2022-08-26T09:54:56.525Z,947
2022-08-26T09:55:59.606Z,947
2022-08-26T09:57:02.070Z,947
2022-08-26T09:58:09.853Z,946.9
2022-08-26T09:59:12.125Z,947
2022-08-26T10:00:14.731Z,946.9
2022-08-26T10:01:19.671Z,946.9
2022-08-26T10:02:22.176Z,947
2022-08-26T10:03:24.024Z,946.9
2022-08-26T10:04:27.350Z,946.9
2022-08-26T10:05:29.874Z,947
2022-08-26T10:06:31.724Z,947
2022-08-26T10:07:33.505Z,946.9
2022-08-26T10:08:35.362Z,946.9
2022-08-26T10:09:38.810Z,946.8
2022-08-26T10:10:45.350Z,946.8
2022-08-26T10:11:50.295Z,946.8
2022-08-26T10:12:52.147Z,946.8
2022-08-26T10:13:54.506Z,946.9
2022-08-26T10:14:56.976Z,946.8
2022-08-26T10:16:00.767Z,946.8
2022-08-26T10:17:02.871Z,946.8
2022-08-26T10:18:10.325Z,946.8
2022-08-26T10:19:12.465Z,946.8
2022-08-26T10:20:24.351Z,946.8
2022-08-26T10:21:26.304Z,946.8
2022-08-26T10:22:28.358Z,946.8
2022-08-26T10:23:32.286Z,946.9
2022-08-26T10:24:34.203Z,946.8
2022-08-26T10:25:38.121Z,946.8
2022-08-26T10:26:39.952Z,946.8
2022-08-26T10:27:54.099Z,946.8
2022-08-26T10:28:57.694Z,946.8
2022-08-26T10:29:59.602Z,946.8
2022-08-26T10:31:01.483Z,946.8
2022-08-26T10:32:05.302Z,946.8
2022-08-26T10:33:08.300Z,946.8
2022-08-26T10:34:14.374Z,946.8
2022-08-26T10:35:17.896Z,946.8
2022-08-26T10:36:20.771Z,946.8
2022-08-26T10:37:22.734Z,946.8
2022-08-26T10:38:29.495Z,946.8
2022-08-26T10:39:31.273Z,946.8
2022-08-26T10:40:35.586Z,946.8
2022-08-26T10:41:38.390Z,946.8
2022-08-26T10:42:42.008Z,946.8
2022-08-26T10:43:44.373Z,946.8
2022-08-26T10:44:48.603Z,946.8
2022-08-26T10:45:50.997Z,946.8
2022-08-26T10:46:52.989Z,946.8
2022-08-26T10:47:54.840Z,946.7
2022-08-26T10:49:03.453Z,946.7
2022-08-26T10:50:09.189Z,946.7
2022-08-26T10:51:15.033Z,946.7
2022-08-26T10:52:17.189Z,946.7
2022-08-26T10:53:26.721Z,946.7
2022-08-26T10:54:34.757Z,946.7
2022-08-26T10:55:36.564Z,946.7
2022-08-26T10:56:38.357Z,946.7
2022-08-26T10:57:40.163Z,946.7
2022-08-26T10:58:44.984Z,946.7
2022-08-26T10:59:46.764Z,946.7
2022-08-26T11:00:48.686Z,946.7
2022-08-26T11:01:52.884Z,946.7
2022-08-26T11:02:56.585Z,946.7
2022-08-26T11:03:58.793Z,946.7
2022-08-26T11:05:01.203Z,946.7
2022-08-26T11:06:05.101Z,946.7
2022-08-26T11:07:07.255Z,946.7
2022-08-26T11:08:10.099Z,946.7
2022-08-26T11:09:12.395Z,946.7
2022-08-26T11:10:15.474Z,946.7
2022-08-26T11:11:19.893Z,946.6
2022-08-26T11:12:22.459Z,946.6
2022-08-26T11:13:24.400Z,946.6
2022-08-26T11:14:34.098Z,946.6
2022-08-26T11:16:01.687Z,946.7
2022-08-26T11:17:07.427Z,946.7
2022-08-26T11:18:09.915Z,946.7
2022-08-26T11:19:12.190Z,946.7
2022-08-26T11:20:15.333Z,946.7
2022-08-26T11:21:29.885Z,946.7
2022-08-26T11:22:31.935Z,946.6
2022-08-26T11:23:34.910Z,946.6
2022-08-26T11:24:37.068Z,946.6
2022-08-26T11:25:39.031Z,946.6
2022-08-26T11:26:56.967Z,946.6
2022-08-26T11:27:59.005Z,946.6
2022-08-26T11:29:03.523Z,946.6
2022-08-26T11:30:05.672Z,946.6
2022-08-26T11:31:07.901Z,946.6
2022-08-26T11:32:12.545Z,946.6
2022-08-26T11:33:20.508Z,946.7
2022-08-26T11:34:22.287Z,946.6
2022-08-26T11:35:24.136Z,946.6
2022-08-26T11:36:27.427Z,946.6
2022-08-26T11:37:32.758Z,946.6
2022-08-26T11:38:35.152Z,946.6
2022-08-26T11:39:41.332Z,946.6
2022-08-26T11:40:48.136Z,946.5
2022-08-26T11:41:53.567Z,946.5
2022-08-26T11:42:55.730Z,946.6
2022-08-26T11:43:57.706Z,946.6
2022-08-26T11:45:05.935Z,946.6
2022-08-26T11:46:09.658Z,946.6
2022-08-26T11:47:13.466Z,946.6
2022-08-26T11:48:15.217Z,946.6
2022-08-26T11:49:17.372Z,946.6
2022-08-26T11:50:19.689Z,946.6
2022-08-26T11:51:22.300Z,946.5
2022-08-26T11:52:26.202Z,946.6
2022-08-26T11:53:30.200Z,946.5
2022-08-26T11:54:36.151Z,946.5
2022-08-26T11:55:38.002Z,946.5
2022-08-26T11:56:41.182Z,946.5
2022-08-26T11:57:43.050Z,946.5
2022-08-26T11:58:44.990Z,946.5
2022-08-26T11:59:46.769Z,946.5
2022-08-26T12:00:48.581Z,946.5
2022-08-26T12:01:50.331Z,946.5
2022-08-26T12:02:53.715Z,946.5
2022-08-26T12:03:59.449Z,946.5
2022-08-26T12:05:02.632Z,946.5
2022-08-26T12:06:05.133Z,946.4
2022-08-26T12:07:09.077Z,946.4
2022-08-26T12:08:11.895Z,946.4
2022-08-26T12:09:15.373Z,946.4
2022-08-26T12:10:17.217Z,946.3
2022-08-26T12:11:19.169Z,946.3
2022-08-26T12:12:20.915Z,946.3
2022-08-26T12:13:22.867Z,946.3
2022-08-26T12:14:24.722Z,946.3
2022-08-26T12:15:29.769Z,946.3
2022-08-26T12:16:33.217Z,946.3
2022-08-26T12:17:38.356Z,946.3
2022-08-26T12:18:45.052Z,946.3
2022-08-26T12:19:48.410Z,946.3
2022-08-26T12:20:50.460Z,946.3
2022-08-26T12:21:52.310Z,946.2
2022-08-26T12:22:54.366Z,946.2
2022-08-26T12:23:56.213Z,946.2
2022-08-26T12:24:58.173Z,946.1
2022-08-26T12:26:00.356Z,946.2
2022-08-26T12:27:02.178Z,946.2
2022-08-26T12:28:04.630Z,946.1
2022-08-26T12:29:27.546Z,946.1
2022-08-26T12:30:32.611Z,946.1
2022-08-26T12:31:35.288Z,946.1
2022-08-26T12:32:59.072Z,946.1
2022-08-26T12:34:02.122Z,946.1
2022-08-26T12:36:08.894Z,946.1
2022-08-26T12:37:10.734Z,946.1
2022-08-26T12:38:13.286Z,946.1
2022-08-26T12:39:15.466Z,946.1
2022-08-26T12:40:17.555Z,946.1
2022-08-26T12:41:19.572Z,946.1
2022-08-26T12:42:21.528Z,946.2
2022-08-26T12:43:23.372Z,946.1
2022-08-26T12:44:25.323Z,946.1
2022-08-26T12:45:27.420Z,946.1
2022-08-26T12:46:29.407Z,946.1
2022-08-26T12:47:44.485Z,946.1
2022-08-26T12:48:46.343Z,946.1
2022-08-26T12:49:48.211Z,946.1
2022-08-26T12:50:50.252Z,946.1
2022-08-26T12:51:52.097Z,946.1
2022-08-26T12:52:53.947Z,946.1
2022-08-26T12:53:55.802Z,946.1
2022-08-26T12:54:57.655Z,946.1
2022-08-26T12:55:59.497Z,946.1
2022-08-26T12:57:01.349Z,946.1
2022-08-26T12:58:03.508Z,946.1
2022-08-26T12:59:05.392Z,946.1
2022-08-26T13:00:07.313Z,946.1
2022-08-26T13:01:09.766Z,946.1
2022-08-26T13:02:12.247Z,946.1
2022-08-26T13:03:14.496Z,946.1
2022-08-26T13:04:16.364Z,946.1
2022-08-26T13:05:18.198Z,946.1
2022-08-26T13:06:20.045Z,946.1
2022-08-26T13:07:21.906Z,946.1
2022-08-26T13:08:23.746Z,946
2022-08-26T13:09:25.596Z,946
2022-08-26T13:10:31.546Z,946.1
2022-08-26T13:11:33.498Z,946.1
2022-08-26T13:12:35.448Z,946.1
2022-08-26T13:13:39.038Z,946.1
2022-08-26T13:14:40.886Z,946
2022-08-26T13:15:42.634Z,946
2022-08-26T13:16:44.791Z,946
2022-08-26T13:17:46.642Z,946
2022-08-26T13:18:48.491Z,946
2022-08-26T13:19:50.349Z,946
2022-08-26T13:20:52.192Z,946
2022-08-26T13:21:54.044Z,946
2022-08-26T13:22:59.681Z,946
2022-08-26T13:24:04.407Z,946
2022-08-26T13:25:06.254Z,946
2022-08-26T13:26:08.097Z,946
2022-08-26T13:27:09.948Z,946
2022-08-26T13:28:11.797Z,946
2022-08-26T13:29:13.681Z,946
2022-08-26T13:30:15.910Z,946
2022-08-26T13:31:19.099Z,946
2022-08-26T13:32:21.142Z,946
2022-08-26T13:33:24.428Z,946
2022-08-26T13:34:26.381Z,946
2022-08-26T13:35:28.230Z,946
2022-08-26T13:36:29.978Z,946
2022-08-26T13:37:35.925Z,946
2022-08-26T13:38:37.773Z,946
2022-08-26T13:39:40.544Z,946
2022-08-26T13:40:42.526Z,946
2022-08-26T13:41:44.347Z,946
2022-08-26T13:42:50.367Z,946
2022-08-26T13:43:52.246Z,946
2022-08-26T13:44:54.098Z,946
2022-08-26T13:45:55.951Z,946
2022-08-26T13:46:57.806Z,946
2022-08-26T13:47:59.657Z,945.9